createdAt,value
2017-10-21T00:02:03.342Z,60.7
2017-10-21T00:07:03.674Z,60.6
2017-10-21T00:12:03.322Z,60.6
2017-10-21T00:17:03.928Z,60.5
2017-10-21T00:22:03.588Z,60.5
2017-10-21T00:27:03.299Z,60.7
2017-10-21T00:32:03.808Z,60.4
2017-10-21T00:37:03.576Z,60.6
2017-10-21T00:42:03.113Z,60.7
2017-10-21T00:47:03.318Z,60.6
2017-10-21T00:52:03.411Z,60.5
2017-10-21T00:57:03.225Z,60.4
2017-10-21T01:02:04.016Z,60.7
2017-10-21T01:07:03.552Z,60.7
2017-10-21T01:12:03.405Z,60.8
2017-10-21T01:17:04.047Z,60.5
2017-10-21T01:22:03.805Z,60.5
2017-10-21T01:27:03.450Z,60.5
2017-10-21T01:32:03.159Z,60.6
2017-10-21T01:37:03.965Z,60.8
2017-10-21T01:42:03.503Z,60.7
2017-10-21T01:47:03.059Z,60.7
2017-10-21T01:52:03.615Z,61.0
2017-10-21T01:57:03.138Z,60.7
2017-10-21T02:02:03.112Z,60.8
2017-10-21T02:07:03.195Z,60.6
2017-10-21T02:12:03.994Z,60.7
2017-10-21T02:17:03.854Z,60.7
2017-10-21T02:22:03.377Z,61.0
2017-10-21T02:27:03.944Z,61.0
2017-10-21T02:32:03.634Z,61.0
2017-10-21T02:37:03.208Z,61.0
2017-10-21T02:42:03.356Z,60.7
2017-10-21T02:47:03.439Z,60.5
2017-10-21T02:52:03.519Z,60.8
2017-10-21T02:57:03.567Z,60.8
2017-10-21T03:02:03.657Z,60.7
2017-10-21T03:07:03.842Z,60.6
2017-10-21T03:12:03.173Z,60.6
2017-10-21T03:17:03.455Z,60.4
2017-10-21T03:22:03.456Z,60.4
2017-10-21T03:27:03.568Z,60.1
2017-10-21T03:32:03.614Z,60.0
2017-10-21T03:37:03.663Z,60.1
2017-10-21T03:42:03.746Z,60.3
2017-10-21T03:47:03.886Z,60.5
2017-10-21T03:52:03.026Z,60.4
2017-10-21T03:57:03.200Z,60.3
2017-10-21T04:02:03.479Z,60.4
2017-10-21T04:07:03.467Z,60.3
2017-10-21T04:12:03.735Z,60.4
2017-10-21T04:17:03.888Z,60.5
2017-10-21T04:22:03.964Z,60.4
2017-10-21T04:27:03.144Z,61.0
2017-10-21T04:32:03.392Z,61.0
2017-10-21T04:37:03.521Z,61.1
2017-10-21T04:42:03.365Z,61.1
2017-10-21T04:47:03.521Z,61.1
2017-10-21T04:52:03.559Z,61.1
2017-10-21T04:57:03.653Z,61.1
2017-10-21T05:02:04.036Z,61.2
2017-10-21T05:07:03.901Z,61.0
2017-10-21T05:12:03.210Z,61.1
2017-10-21T05:17:04.899Z,61.0
2017-10-21T05:22:03.591Z,61.1
2017-10-21T05:27:03.761Z,61.0
2017-10-21T05:32:28.094Z,61.0
2017-10-21T05:37:03.106Z,61.0
2017-10-21T05:42:03.230Z,61.0
2017-10-21T05:47:25.935Z,61.1
2017-10-21T05:52:03.110Z,61.0
2017-10-21T05:57:03.446Z,61.0
2017-10-21T06:02:28.508Z,61.1
2017-10-21T06:07:03.442Z,61.0
2017-10-21T06:12:03.816Z,61.1
2017-10-21T06:17:21.840Z,61.2
2017-10-21T06:22:03.204Z,61.0
2017-10-21T06:27:03.397Z,60.8
2017-10-21T06:32:28.523Z,60.6
2017-10-21T06:37:03.238Z,60.7
2017-10-21T06:42:03.385Z,60.7
2017-10-21T06:47:26.824Z,60.7
2017-10-21T06:52:03.316Z,60.6
2017-10-21T06:57:03.548Z,60.7
2017-10-21T07:02:24.391Z,60.9
2017-10-21T07:07:03.849Z,60.8
2017-10-21T07:12:03.994Z,61.0
2017-10-21T07:17:25.506Z,60.9
2017-10-21T07:22:03.666Z,60.9
2017-10-21T07:27:03.876Z,60.9
2017-10-21T07:32:27.841Z,60.8
2017-10-21T07:37:03.416Z,60.9
2017-10-21T07:42:03.288Z,60.8
2017-10-21T07:47:28.578Z,60.6
2017-10-21T07:52:03.232Z,60.6
2017-10-21T07:57:03.510Z,60.2
2017-10-21T08:02:24.164Z,60.2
2017-10-21T08:07:03.439Z,60.2
2017-10-21T08:12:03.820Z,60.2
2017-10-21T08:17:22.543Z,60.2
2017-10-21T08:22:03.863Z,60.2
2017-10-21T08:27:03.035Z,60.1
2017-10-21T08:32:28.507Z,60.3
2017-10-21T08:37:03.772Z,60.3
2017-10-21T08:42:02.950Z,60.4
2017-10-21T08:47:28.146Z,60.4
2017-10-21T08:52:03.211Z,60.3
2017-10-21T08:57:03.726Z,60.3
2017-10-21T09:02:25.521Z,60.4
2017-10-21T09:07:03.651Z,60.5
2017-10-21T09:12:03.695Z,60.9
2017-10-21T09:17:23.830Z,61.3
2017-10-21T09:22:03.869Z,61.2
2017-10-21T09:27:03.108Z,61.0
2017-10-21T09:32:25.416Z,60.8
2017-10-21T09:37:03.677Z,60.5
2017-10-21T09:42:03.835Z,60.8
2017-10-21T09:47:28.765Z,61.0
2017-10-21T09:52:03.743Z,61.0
2017-10-21T09:57:02.994Z,61.1
2017-10-21T10:02:29.084Z,60.5
2017-10-21T10:07:03.447Z,60.5
2017-10-21T10:12:03.775Z,60.5
2017-10-21T10:17:29.287Z,61.0
2017-10-21T10:22:03.520Z,61.3
2017-10-21T10:27:03.851Z,61.4
2017-10-21T10:32:23.514Z,61.5
2017-10-21T10:37:03.019Z,61.7
2017-10-21T10:42:03.176Z,61.9
2017-10-21T10:47:23.755Z,62.1
2017-10-21T10:52:03.763Z,62.2
2017-10-21T10:57:03.037Z,62.2
2017-10-21T11:02:28.245Z,61.6
2017-10-21T11:07:03.750Z,61.6
2017-10-21T11:12:03.066Z,61.8
2017-10-21T11:17:28.320Z,61.7
2017-10-21T11:22:03.272Z,61.9
2017-10-21T11:27:03.514Z,61.8
2017-10-21T11:32:33.928Z,61.7
2017-10-21T11:37:03.018Z,61.6
2017-10-21T11:42:03.234Z,61.7
2017-10-21T11:47:28.592Z,61.5
2017-10-21T11:52:03.161Z,61.6
2017-10-21T11:57:03.501Z,61.6
2017-10-21T12:02:28.877Z,62.5
2017-10-21T12:07:03.896Z,62.4
2017-10-21T12:12:03.685Z,62.9
2017-10-21T12:17:17.442Z,63.3
2017-10-21T12:22:03.248Z,63.4
2017-10-21T12:27:03.522Z,63.2
2017-10-21T12:32:29.044Z,63.3
2017-10-21T12:37:03.580Z,63.3
2017-10-21T12:42:03.797Z,62.9
2017-10-21T12:47:26.419Z,62.7
2017-10-21T12:52:02.998Z,62.7
2017-10-21T12:57:03.167Z,62.6
2017-10-21T13:02:25.868Z,63.1
2017-10-21T13:07:03.171Z,63.1
2017-10-21T13:12:03.530Z,63.3
2017-10-21T13:17:26.726Z,63.6
2017-10-21T13:22:03.760Z,63.7
2017-10-21T13:27:03.910Z,63.6
2017-10-21T13:32:28.308Z,63.6
2017-10-21T13:37:03.605Z,63.1
2017-10-21T13:42:03.778Z,63.0
2017-10-21T13:47:28.068Z,62.6
2017-10-21T13:52:03.699Z,63.2
2017-10-21T13:57:02.945Z,63.2
2017-10-21T14:02:31.603Z,64.2
2017-10-21T14:07:03.761Z,64.1
2017-10-21T14:12:03.127Z,64.2
2017-10-21T14:17:24.305Z,64.2
2017-10-21T14:22:03.003Z,63.5
2017-10-21T14:27:03.250Z,63.5
2017-10-21T14:32:28.886Z,63.5
2017-10-21T14:37:03.822Z,63.4
2017-10-21T14:42:03.936Z,63.8
2017-10-21T14:47:23.656Z,63.7
2017-10-21T14:52:03.530Z,63.7
2017-10-21T14:57:03.754Z,63.7
2017-10-21T15:02:26.223Z,63.6
2017-10-21T15:07:03.381Z,63.4
2017-10-21T15:12:03.720Z,63.4
2017-10-21T15:17:29.352Z,63.2
2017-10-21T15:22:03.171Z,63.2
2017-10-21T15:27:03.442Z,62.6
2017-10-21T15:32:33.856Z,61.8
2017-10-21T15:37:03.926Z,62.4
2017-10-21T15:42:03.103Z,63.4
2017-10-21T15:47:28.423Z,64.2
2017-10-21T15:52:03.079Z,64.4
2017-10-21T15:57:03.384Z,64.6
2017-10-21T16:02:24.217Z,64.7
2017-10-21T16:07:03.219Z,64.8
2017-10-21T16:12:03.817Z,64.9
2017-10-21T16:17:37.468Z,65.1
2017-10-21T16:22:03.224Z,65.4
2017-10-21T16:27:03.421Z,65.3
2017-10-21T16:32:27.303Z,64.9
2017-10-21T16:37:03.547Z,65.1
2017-10-21T16:42:03.806Z,65.2
2017-10-21T16:47:10.167Z,65.2
2017-10-21T16:52:03.254Z,66.6
2017-10-21T16:57:03.470Z,67.8
2017-10-21T17:02:03.507Z,67.9
2017-10-21T17:07:03.671Z,67.9
2017-10-21T17:12:03.977Z,68.1
2017-10-21T17:17:04.208Z,68.1
2017-10-21T17:22:03.311Z,67.6
2017-10-21T17:27:03.475Z,67.6
2017-10-21T17:32:03.626Z,67.4
2017-10-21T17:37:03.591Z,67.4
2017-10-21T17:42:03.688Z,67.0
2017-10-21T17:47:04.093Z,67.0
2017-10-21T17:52:03.876Z,66.8
2017-10-21T17:57:03.947Z,66.7
2017-10-21T18:02:03.071Z,66.4
2017-10-21T18:07:03.384Z,64.8
2017-10-21T18:12:03.511Z,64.8
2017-10-21T18:17:03.645Z,63.4
2017-10-21T18:22:03.792Z,62.4
2017-10-21T18:27:03.854Z,62.3
2017-10-21T18:32:04.015Z,61.9
2017-10-21T18:37:03.191Z,61.9
2017-10-21T18:42:03.276Z,61.7
2017-10-21T18:47:03.383Z,61.5
2017-10-21T18:52:03.450Z,61.3
2017-10-21T18:57:03.570Z,61.1
2017-10-21T19:02:03.969Z,61.4
2017-10-21T19:07:03.836Z,61.0
2017-10-21T19:12:03.221Z,60.8
2017-10-21T19:17:03.511Z,60.8
2017-10-21T19:22:03.518Z,62.1
2017-10-21T19:27:03.494Z,62.6
2017-10-21T19:32:03.665Z,62.6
2017-10-21T19:37:03.779Z,62.0
2017-10-21T19:42:03.815Z,62.0
2017-10-21T19:47:04.029Z,61.6
2017-10-21T19:52:02.928Z,61.2
2017-10-21T19:57:03.138Z,61.0
2017-10-21T20:02:03.366Z,61.0
2017-10-21T20:07:03.385Z,60.8
2017-10-21T20:12:03.695Z,60.8
2017-10-21T20:17:03.781Z,60.6
2017-10-21T20:22:03.945Z,60.9
2017-10-21T20:27:03.060Z,60.7
2017-10-21T20:32:03.298Z,60.7
2017-10-21T20:37:03.446Z,60.7
2017-10-21T20:42:03.540Z,60.7
2017-10-21T20:47:03.566Z,60.6
2017-10-21T20:52:03.643Z,60.5
2017-10-21T20:57:03.673Z,60.6
2017-10-21T21:02:03.872Z,60.5
2017-10-21T21:07:03.142Z,60.4
2017-10-21T21:12:03.345Z,60.4
2017-10-21T21:17:03.517Z,60.4
2017-10-21T21:22:03.641Z,60.3
2017-10-21T21:27:03.543Z,60.2
2017-10-21T21:32:03.704Z,60.3
2017-10-21T21:37:03.745Z,60.3
2017-10-21T21:42:03.790Z,60.2
2017-10-21T21:47:03.956Z,60.2
2017-10-21T21:52:03.033Z,60.2
2017-10-21T21:57:03.144Z,60.3
2017-10-21T22:02:03.282Z,60.4
2017-10-21T22:07:03.667Z,60.2
2017-10-21T22:12:03.826Z,60.2
2017-10-21T22:22:04.218Z,60.4
2017-10-21T22:27:03.655Z,61.0
2017-10-21T22:32:03.176Z,60.5
2017-10-21T22:37:03.231Z,60.4
2017-10-21T22:42:03.839Z,60.3
2017-10-21T22:47:03.275Z,60.3
2017-10-21T22:52:03.464Z,60.3
2017-10-21T22:57:03.476Z,60.2
2017-10-21T23:02:03.609Z,60.2
2017-10-21T23:07:03.812Z,60.1
2017-10-21T23:12:03.006Z,60.3
2017-10-21T23:17:03.659Z,60.1
2017-10-21T23:22:03.531Z,60.2
2017-10-21T23:27:04.038Z,60.2
2017-10-21T23:32:03.545Z,60.2
2017-10-21T23:37:03.199Z,60.1
2017-10-21T23:42:03.564Z,60.1
2017-10-21T23:47:03.189Z,60.2
2017-10-21T23:52:03.173Z,60.1
2017-10-21T23:57:03.731Z,60.1
